Time;durP1;ratioP1;P1;durP2;ratioP2;P2;SDS_P1;SDS_P2;PMS_P1;PMS_P2;Temp;Humidity;BMP_temperature;BMP_pressure;BME280_temperature;BME280_humidity;BME280_pressure;Samples;Min_cycle;Max_cycle;Signal;HPM_P1;HPM_P2
2022/10/25 00:00:56;;;;;;;12.88;1.75;;;11.10;99.90;;;;;;4942346;29;20051;-93
2022/10/25 00:03:22;;;;;;;9.88;1.48;;;11.10;99.90;;;;;;4941066;29;20122;-93
2022/10/25 00:05:48;;;;;;;13.30;1.63;;;11.10;99.90;;;;;;4940745;29;20113;-93
2022/10/25 00:08:13;;;;;;;13.85;1.85;;;11.10;99.90;;;;;;4939367;29;20035;-96
2022/10/25 00:10:39;;;;;;;13.90;1.85;;;11.10;99.90;;;;;;4939812;29;20023;-95
2022/10/25 00:13:05;;;;;;;8.27;1.40;;;11.10;99.90;;;;;;4939905;29;20038;-94
2022/10/25 00:15:30;;;;;;;12.02;1.55;;;11.00;99.90;;;;;;4939170;29;20078;-94
2022/10/25 00:17:57;;;;;;;13.85;2.28;;;11.00;99.90;;;;;;4939439;29;20037;-93
2022/10/25 00:20:22;;;;;;;10.43;2.45;;;11.00;99.90;;;;;;4956343;29;20027;-95
2022/10/25 00:22:48;;;;;;;12.93;1.33;;;11.00;99.90;;;;;;4939929;29;20247;-93
2022/10/25 00:25:14;;;;;;;5.13;1.48;;;11.00;99.90;;;;;;4942568;29;20058;-94
2022/10/25 00:27:40;;;;;;;7.47;1.45;;;11.00;99.90;;;;;;4944946;29;20043;-94
2022/10/25 00:30:06;;;;;;;9.15;1.85;;;11.00;99.90;;;;;;4951045;28;20041;-95
2022/10/25 00:32:33;;;;;;;10.82;2.05;;;11.00;99.90;;;;;;4948010;29;20133;-96
2022/10/25 00:34:59;;;;;;;15.45;2.80;;;10.90;99.90;;;;;;4960365;29;20170;-96
2022/10/25 00:37:24;;;;;;;11.10;1.38;;;10.90;99.90;;;;;;4945917;29;20564;-94
2022/10/25 00:39:50;;;;;;;10.75;1.50;;;10.90;99.90;;;;;;4947549;29;20031;-93
2022/10/25 00:42:24;;;;;;;10.88;1.42;;;10.80;99.90;;;;;;4946397;29;20038;-94
2022/10/25 00:44:52;;;;;;;7.05;1.30;;;10.80;99.90;;;;;;4956786;29;20032;-94
2022/10/25 00:47:28;;;;;;;11.63;2.08;;;10.80;99.90;;;;;;4960689;29;20027;-95
2022/10/25 00:50:04;;;;;;;11.75;1.50;;;10.80;99.90;;;;;;4961282;28;20063;-93
2022/10/25 00:52:34;;;;;;;9.63;2.10;;;10.80;99.90;;;;;;4940153;29;20575;-93
2022/10/25 00:55:02;;;;;;;9.30;1.63;;;10.80;99.90;;;;;;4942833;29;20500;-93
2022/10/25 00:57:45;;;;;;;8.27;1.33;;;10.80;99.90;;;;;;4942923;29;20662;-95
2022/10/25 01:00:11;;;;;;;9.80;2.00;;;10.80;99.90;;;;;;4942078;29;20031;-95
2022/10/25 01:02:37;;;;;;;6.25;1.17;;;10.70;99.90;;;;;;4943950;29;20400;-95
2022/10/25 01:05:03;;;;;;;12.55;1.50;;;10.70;99.90;;;;;;4942758;29;20025;-96
2022/10/25 01:07:29;;;;;;;7.82;1.27;;;10.70;99.90;;;;;;4942220;29;20039;-93
2022/10/25 01:09:56;;;;;;;8.02;1.67;;;10.70;99.90;;;;;;4962583;29;20027;-94
2022/10/25 01:12:22;;;;;;;10.32;1.42;;;10.70;99.90;;;;;;4980771;28;20027;-95
2022/10/25 01:14:49;;;;;;;13.52;1.73;;;10.70;99.90;;;;;;4966323;28;20035;-94
2022/10/25 01:18:02;;;;;;;18.15;1.60;;;10.70;99.90;;;;;;4965975;28;20046;-94
2022/10/25 01:21:16;;;;;;;11.10;2.55;;;10.70;99.90;;;;;;4973630;28;20037;-94
2022/10/25 01:24:08;;;;;;;9.15;2.13;;;10.80;99.90;;;;;;4907486;29;20036;-94
2022/10/25 01:27:00;;;;;;;9.85;1.38;;;10.80;99.90;;;;;;4911398;29;20028;-92
2022/10/25 01:29:56;;;;;;;10.40;1.70;;;10.70;99.90;;;;;;4920430;29;20040;-93
2022/10/25 01:32:31;;;;;;;9.80;1.17;;;10.70;99.90;;;;;;4931150;29;20051;-94
2022/10/25 01:35:20;;;;;;;9.98;1.23;;;10.70;99.90;;;;;;4912598;29;20032;-94
2022/10/25 01:38:07;;;;;;;7.70;2.20;;;10.70;99.90;;;;;;4924007;29;20032;-91
2022/10/25 01:40:49;;;;;;;12.63;2.88;;;10.60;99.90;;;;;;4916433;29;20028;-95
2022/10/25 01:43:26;;;;;;;16.77;2.08;;;10.60;99.90;;;;;;4914749;29;20032;-95
2022/10/25 01:46:00;;;;;;;11.57;2.10;;;10.60;99.90;;;;;;4914660;29;20036;-94
2022/10/25 01:48:32;;;;;;;9.27;1.42;;;10.60;99.90;;;;;;4910828;29;20039;-94
2022/10/25 01:51:08;;;;;;;7.10;1.15;;;10.50;99.90;;;;;;4912025;29;20064;-95
2022/10/25 01:53:48;;;;;;;11.13;1.27;;;10.50;99.90;;;;;;4911516;29;20047;-95
2022/10/25 01:56:23;;;;;;;3.90;1.10;;;10.50;99.90;;;;;;4910701;29;20040;-94
2022/10/25 01:59:30;;;;;;;6.85;1.08;;;10.50;99.90;;;;;;4933847;28;20043;-94
2022/10/25 02:02:20;;;;;;;7.82;1.42;;;10.60;99.90;;;;;;4969967;28;20134;-95
2022/10/25 02:04:55;;;;;;;11.75;2.08;;;10.50;99.90;;;;;;4967517;28;20047;-94
2022/10/25 02:07:50;;;;;;;8.27;1.15;;;10.50;99.90;;;;;;4967947;28;20022;-94
2022/10/25 02:10:23;;;;;;;9.25;1.10;;;10.50;99.90;;;;;;4968852;28;20027;-94
2022/10/25 02:12:52;;;;;;;4.03;1.35;;;10.50;99.90;;;;;;4971868;28;20069;-93
2022/10/25 02:15:43;;;;;;;8.50;1.45;;;10.50;99.90;;;;;;4968504;28;20447;-93
2022/10/25 02:18:13;;;;;;;;;;;10.50;99.90;;;;;;4969940;28;20085;-94
2022/10/25 02:20:41;;;;;;;7.57;1.10;;;10.40;99.90;;;;;;4968960;28;19910;-94
2022/10/25 02:23:07;;;;;;;7.35;1.73;;;10.40;99.90;;;;;;4972068;28;20503;-93
2022/10/25 02:25:35;;;;;;;4.72;1.20;;;10.40;99.90;;;;;;4970761;28;20023;-94
2022/10/25 02:28:05;;;;;;;5.22;1.27;;;10.40;99.90;;;;;;4972771;28;20502;-95
2022/10/25 02:30:33;;;;;;;7.55;1.25;;;10.40;99.90;;;;;;4972378;28;20037;-94
2022/10/25 02:33:01;;;;;;;6.28;1.40;;;10.30;99.90;;;;;;4970031;28;20046;-95
2022/10/25 02:35:27;;;;;;;10.18;1.10;;;10.30;99.90;;;;;;4968377;28;20038;-96
2022/10/25 02:37:52;;;;;;;5.97;1.35;;;10.30;99.90;;;;;;4969017;28;20119;-95
2022/10/25 02:40:18;;;;;;;7.88;1.23;;;10.30;99.90;;;;;;4966887;28;20035;-94
2022/10/25 02:42:44;;;;;;;10.50;1.60;;;10.30;99.90;;;;;;4968909;28;20038;-94
2022/10/25 02:45:10;;;;;;;6.22;1.05;;;10.30;99.90;;;;;;4973703;28;20031;-95
2022/10/25 02:47:36;;;;;;;5.75;1.45;;;10.30;99.90;;;;;;4968676;28;20038;-94
2022/10/25 02:50:02;;;;;;;6.85;1.15;;;10.30;99.90;;;;;;4968961;28;20031;-95
2022/10/25 02:52:28;;;;;;;8.18;1.00;;;10.30;99.90;;;;;;4967928;28;20094;-94
2022/10/25 02:54:54;;;;;;;5.35;1.15;;;10.30;99.90;;;;;;4969145;28;20027;-95
2022/10/25 02:57:19;;;;;;;6.60;1.30;;;10.30;99.90;;;;;;4967859;28;20125;-94
2022/10/25 02:59:45;;;;;;;5.43;1.00;;;10.30;99.90;;;;;;4968020;28;20035;-96
2022/10/25 03:02:11;;;;;;;14.45;1.63;;;10.30;99.90;;;;;;4967598;28;20385;-95
2022/10/25 03:04:36;;;;;;;8.63;1.55;;;10.30;99.90;;;;;;4968205;28;20023;-94
2022/10/25 03:07:02;;;;;;;8.73;1.75;;;10.40;99.90;;;;;;4969024;28;20070;-95
2022/10/25 03:09:28;;;;;;;11.55;2.20;;;10.40;99.90;;;;;;4969694;28;20307;-96
2022/10/25 03:11:54;;;;;;;5.15;1.52;;;10.40;99.90;;;;;;4969638;28;20339;-95
2022/10/25 03:14:19;;;;;;;7.10;1.58;;;10.40;99.90;;;;;;4968481;28;20042;-94
2022/10/25 03:16:45;;;;;;;7.63;1.40;;;10.40;99.90;;;;;;4969917;28;20039;-95
2022/10/25 03:19:11;;;;;;;12.13;2.45;;;10.30;99.90;;;;;;4969680;28;20019;-95
2022/10/25 03:21:36;;;;;;;12.38;1.83;;;10.40;99.90;;;;;;4973780;28;20038;-95
2022/10/25 03:24:02;;;;;;;3.67;1.38;;;10.30;99.90;;;;;;4975079;28;20049;-92
2022/10/25 03:26:28;;;;;;;10.85;1.33;;;10.30;99.90;;;;;;4977580;28;20034;-93
2022/10/25 03:28:53;;;;;;;7.95;1.40;;;10.30;99.90;;;;;;4970700;28;20062;-92
2022/10/25 03:31:19;;;;;;;9.93;1.33;;;10.30;99.90;;;;;;4971130;28;20109;-93
2022/10/25 03:33:50;;;;;;;9.20;1.40;;;10.30;99.90;;;;;;4971297;28;20031;-95
2022/10/25 03:36:16;;;;;;;8.75;1.55;;;10.30;99.90;;;;;;4969770;28;20113;-94
2022/10/25 03:38:42;;;;;;;5.85;1.10;;;10.30;99.90;;;;;;4953495;28;20046;-94
2022/10/25 03:41:09;;;;;;;4.90;1.63;;;10.30;99.90;;;;;;4973786;28;20031;-93
2022/10/25 03:43:34;;;;;;;12.68;1.67;;;10.30;99.90;;;;;;4975430;28;20023;-93
2022/10/25 03:46:00;;;;;;;7.28;1.60;;;10.20;99.90;;;;;;4971314;28;20065;-94
2022/10/25 03:48:26;;;;;;;8.27;1.27;;;10.20;99.90;;;;;;4968648;28;20114;-95
2022/10/25 03:50:53;;;;;;;8.38;1.48;;;10.20;99.90;;;;;;4969027;28;20054;-96
2022/10/25 03:53:19;;;;;;;6.40;1.35;;;10.20;99.90;;;;;;4968078;28;20035;-95
2022/10/25 03:55:45;;;;;;;5.72;1.30;;;10.10;99.90;;;;;;4968187;28;20098;-95
2022/10/25 03:58:12;;;;;;;8.20;1.33;;;10.10;99.90;;;;;;4988767;28;20062;-95
2022/10/25 04:00:38;;;;;;;9.00;1.30;;;10.10;99.90;;;;;;4974319;28;20388;-94
2022/10/25 04:03:03;;;;;;;8.02;1.45;;;10.10;99.90;;;;;;4971539;28;20031;-94
2022/10/25 04:05:30;;;;;;;8.20;1.63;;;10.10;99.90;;;;;;4973551;28;20019;-95
2022/10/25 04:07:55;;;;;;;15.55;3.28;;;10.10;99.90;;;;;;4975985;28;20035;-95
2022/10/25 04:10:21;;;;;;;6.40;1.83;;;10.10;99.90;;;;;;4966466;28;20118;-96
2022/10/25 04:12:47;;;;;;;12.82;1.80;;;10.00;99.90;;;;;;4965843;28;20026;-94
2022/10/25 04:15:13;;;;;;;9.27;2.53;;;10.00;99.90;;;;;;4970926;28;20026;-96
2022/10/25 04:17:40;;;;;;;12.50;1.83;;;10.00;99.90;;;;;;4954432;28;20098;-93
2022/10/25 04:20:06;;;;;;;9.38;1.90;;;10.00;99.90;;;;;;4984930;28;20034;-94
2022/10/25 04:22:32;;;;;;;9.60;2.05;;;10.00;99.90;;;;;;4970098;28;20031;-94
2022/10/25 04:24:58;;;;;;;14.20;2.08;;;10.00;99.90;;;;;;4972422;28;20038;-94
2022/10/25 04:27:24;;;;;;;6.18;1.50;;;9.90;99.90;;;;;;4976435;28;20055;-95
2022/10/25 04:29:49;;;;;;;9.13;1.75;;;10.00;99.90;;;;;;4978615;28;20031;-94
2022/10/25 04:32:15;;;;;;;7.63;1.88;;;10.00;99.90;;;;;;4978343;28;20313;-94
2022/10/25 04:34:41;;;;;;;11.20;2.13;;;9.90;99.90;;;;;;4977547;28;20062;-95
2022/10/25 04:37:06;;;;;;;8.65;1.52;;;9.90;99.90;;;;;;4956184;28;20070;-95
2022/10/25 04:39:32;;;;;;;7.68;1.58;;;9.90;99.90;;;;;;4973859;28;20042;-95
2022/10/25 04:41:58;;;;;;;6.72;2.45;;;9.90;99.90;;;;;;4975701;28;20455;-95
2022/10/25 04:44:23;;;;;;;12.48;2.20;;;9.80;99.90;;;;;;4977093;28;20019;-94
2022/10/25 04:46:50;;;;;;;16.98;2.38;;;9.90;99.90;;;;;;4977052;28;20042;-95
2022/10/25 04:49:16;;;;;;;7.55;1.55;;;9.80;99.90;;;;;;4978272;28;20018;-95
2022/10/25 04:51:42;;;;;;;14.02;2.25;;;9.80;99.90;;;;;;4977024;28;20045;-94
2022/10/25 04:54:08;;;;;;;14.82;1.95;;;9.80;99.90;;;;;;4976985;28;20019;-96
2022/10/25 04:56:33;;;;;;;9.50;1.65;;;9.80;99.90;;;;;;4975877;28;20046;-95
2022/10/25 04:58:59;;;;;;;9.93;1.70;;;9.80;99.90;;;;;;4977460;28;20068;-94
2022/10/25 05:01:25;;;;;;;9.38;1.55;;;9.80;99.90;;;;;;4976767;28;20031;-93
2022/10/25 05:03:51;;;;;;;12.80;2.15;;;9.70;99.90;;;;;;4975200;28;20081;-94
2022/10/25 05:06:19;;;;;;;11.85;2.00;;;9.80;99.90;;;;;;4975726;28;20019;-94
2022/10/25 05:08:47;;;;;;;11.98;1.85;;;9.80;99.90;;;;;;4982663;28;20038;-93
2022/10/25 05:11:16;;;;;;;12.57;2.08;;;9.70;99.90;;;;;;4987192;28;20011;-90
2022/10/25 05:13:43;;;;;;;9.07;1.95;;;9.70;99.90;;;;;;4971015;28;20102;-93
2022/10/25 05:16:13;;;;;;;6.63;1.80;;;9.70;99.90;;;;;;4981025;28;20058;-94
2022/10/25 05:18:41;;;;;;;7.25;1.63;;;9.70;99.90;;;;;;4981400;28;20034;-94
2022/10/25 05:21:08;;;;;;;8.70;1.58;;;9.70;99.90;;;;;;4980318;28;20033;-93
2022/10/25 05:23:34;;;;;;;6.60;1.88;;;9.70;99.90;;;;;;4979405;28;20420;-94
2022/10/25 05:26:09;;;;;;;13.85;2.20;;;9.70;99.90;;;;;;4997677;28;20031;-96
2022/10/25 05:28:37;;;;;;;15.30;2.05;;;9.70;99.90;;;;;;4975446;28;20043;-94
2022/10/25 05:31:23;;;;;;;8.75;1.65;;;9.70;99.90;;;;;;4977446;28;20026;-95
2022/10/25 05:33:59;;;;;;;11.07;2.28;;;9.70;99.90;;;;;;4980510;28;20061;-95
2022/10/25 05:36:31;;;;;;;6.75;1.95;;;9.70;99.90;;;;;;4975063;28;20084;-94
2022/10/25 05:38:58;;;;;;;6.68;2.85;;;9.70;99.90;;;;;;4968481;28;20051;-94
2022/10/25 05:41:23;;;;;;;6.05;1.92;;;9.80;99.90;;;;;;4955863;29;20031;-94
2022/10/25 05:43:49;;;;;;;7.60;2.67;;;9.80;99.90;;;;;;4955907;29;20031;-94
2022/10/25 05:46:20;;;;;;;6.25;2.35;;;9.80;99.90;;;;;;4970983;29;20028;-94
2022/10/25 05:48:47;;;;;;;5.03;2.13;;;9.80;99.90;;;;;;4954332;29;20023;-94
2022/10/25 05:51:20;;;;;;;9.23;2.83;;;9.80;99.90;;;;;;4955829;29;20035;-95
2022/10/25 05:53:51;;;;;;;9.43;2.45;;;9.80;99.90;;;;;;4960304;29;20023;-94
2022/10/25 05:56:18;;;;;;;8.15;2.88;;;9.80;99.90;;;;;;4952309;29;20027;-94
2022/10/25 05:58:44;;;;;;;5.72;2.50;;;9.80;99.90;;;;;;4969547;28;20022;-95
2022/10/25 06:01:13;;;;;;;9.98;3.42;;;9.80;99.90;;;;;;4971354;28;20030;-94
2022/10/25 06:03:38;;;;;;;6.10;3.17;;;9.70;99.90;;;;;;4972415;28;20034;-95
2022/10/25 06:06:07;;;;;;;18.85;3.67;;;9.70;99.90;;;;;;4970935;28;20089;-94
2022/10/25 06:08:33;;;;;;;9.30;3.15;;;9.70;99.90;;;;;;4968338;28;20043;-93
2022/10/25 06:11:07;;;;;;;10.52;3.13;;;9.70;99.90;;;;;;4974348;28;20095;-93
2022/10/25 06:13:34;;;;;;;9.25;3.33;;;9.70;99.90;;;;;;4974408;28;20027;-93
2022/10/25 06:16:11;;;;;;;5.55;3.20;;;9.70;99.90;;;;;;4974014;28;20094;-92
2022/10/25 06:18:40;;;;;;;7.85;3.20;;;9.70;99.90;;;;;;4975278;28;20031;-92
2022/10/25 06:21:08;;;;;;;9.55;3.20;;;9.60;99.90;;;;;;4966099;28;20042;-95
2022/10/25 06:23:37;;;;;;;11.27;3.60;;;9.60;99.90;;;;;;4964105;28;20089;-94
2022/10/25 06:26:08;;;;;;;7.85;2.80;;;9.60;99.90;;;;;;4963525;28;20023;-93
2022/10/25 06:28:35;;;;;;;4.78;2.45;;;9.60;99.90;;;;;;4951702;29;20070;-93
2022/10/25 06:31:09;;;;;;;9.52;3.03;;;9.60;99.90;;;;;;4946965;29;20087;-94
2022/10/25 06:33:35;;;;;;;9.63;3.03;;;9.60;99.90;;;;;;4945729;29;20062;-93
2022/10/25 06:36:03;;;;;;;7.15;2.30;;;9.60;99.90;;;;;;4944433;29;20035;-94
2022/10/25 06:38:29;;;;;;;6.65;2.63;;;9.50;99.90;;;;;;4944322;29;20038;-93
2022/10/25 06:40:59;;;;;;;6.72;2.40;;;9.50;99.90;;;;;;4946930;29;20051;-94
2022/10/25 06:43:25;;;;;;;10.88;2.58;;;9.50;99.90;;;;;;4951542;28;20031;-93
2022/10/25 06:45:51;;;;;;;7.85;2.40;;;9.50;99.90;;;;;;4967938;28;20050;-95
2022/10/25 06:48:16;;;;;;;7.97;2.58;;;9.50;99.90;;;;;;4970360;28;20022;-94
2022/10/25 06:50:42;;;;;;;5.55;2.97;;;9.50;99.90;;;;;;4968779;28;20463;-94
2022/10/25 06:53:08;;;;;;;9.73;2.20;;;9.50;99.90;;;;;;4971590;28;20455;-95
2022/10/25 06:55:34;;;;;;;9.82;2.30;;;9.50;99.90;;;;;;4975523;28;20098;-95
2022/10/25 06:58:00;;;;;;;11.75;2.88;;;9.50;99.90;;;;;;4972306;28;20090;-93
2022/10/25 07:00:25;;;;;;;15.98;2.58;;;9.50;99.90;;;;;;4976057;28;20026;-94
2022/10/25 07:03:09;;;;;;;6.60;2.05;;;9.50;99.90;;;;;;4970955;28;20045;-93
2022/10/25 07:05:37;;;;;;;6.00;1.80;;;9.40;99.90;;;;;;4968418;28;20034;-94
2022/10/25 07:08:03;;;;;;;9.70;2.00;;;9.40;99.90;;;;;;4967696;28;20030;-94
2022/10/25 07:10:29;;;;;;;8.82;2.38;;;9.50;99.90;;;;;;4964704;28;20027;-96
2022/10/25 07:12:54;;;;;;;6.47;2.30;;;9.50;99.90;;;;;;4956368;29;20027;-94
2022/10/25 07:15:23;;;;;;;6.97;1.80;;;9.50;99.90;;;;;;4949830;29;20027;-95
2022/10/25 07:17:48;;;;;;;5.95;1.88;;;9.40;99.90;;;;;;4949150;29;20039;-94
2022/10/25 07:20:14;;;;;;;12.25;1.85;;;9.50;99.90;;;;;;4950660;29;20054;-95
2022/10/25 07:22:40;;;;;;;5.28;2.05;;;9.40;99.90;;;;;;4967864;28;20041;-95
2022/10/25 07:25:05;;;;;;;8.65;2.10;;;9.40;99.90;;;;;;4975549;28;20476;-95
2022/10/25 07:27:32;;;;;;;6.97;2.15;;;9.50;99.90;;;;;;4975116;28;20049;-94
2022/10/25 07:29:57;;;;;;;7.45;2.13;;;9.50;99.90;;;;;;4969075;28;20031;-95
2022/10/25 07:32:24;;;;;;;7.93;2.47;;;9.40;99.90;;;;;;4973620;28;20027;-95
2022/10/25 07:34:49;;;;;;;2.95;1.90;;;9.40;99.90;;;;;;4971155;28;20041;-95
2022/10/25 07:37:16;;;;;;;8.32;2.60;;;9.50;99.90;;;;;;4971456;28;20122;-95
2022/10/25 07:39:42;;;;;;;8.13;1.88;;;9.50;99.90;;;;;;4969570;28;20027;-93
2022/10/25 07:42:08;;;;;;;8.27;2.25;;;9.40;99.90;;;;;;4968911;28;20023;-94
2022/10/25 07:44:34;;;;;;;5.13;1.67;;;9.50;99.90;;;;;;4972766;28;20023;-95
2022/10/25 07:47:03;;;;;;;5.75;1.67;;;9.50;99.90;;;;;;4962333;28;20031;-95
2022/10/25 07:49:29;;;;;;;5.80;1.90;;;9.50;99.90;;;;;;4969066;28;20019;-94
2022/10/25 07:51:55;;;;;;;15.43;2.70;;;9.50;99.90;;;;;;4965427;28;20070;-93
2022/10/25 07:54:20;;;;;;;12.30;2.10;;;9.60;99.90;;;;;;4970815;28;20030;-95
2022/10/25 07:56:46;;;;;;;7.30;2.03;;;9.60;99.90;;;;;;4977799;28;20042;-95
2022/10/25 07:59:12;;;;;;;12.88;2.08;;;9.70;99.90;;;;;;4971554;28;20030;-92
2022/10/25 08:01:37;;;;;;;9.00;3.08;;;9.80;99.90;;;;;;4975544;28;20050;-93
2022/10/25 08:04:03;;;;;;;6.57;2.30;;;10.00;99.90;;;;;;4974352;28;20034;-94
2022/10/25 08:06:29;;;;;;;8.02;1.60;;;10.10;99.90;;;;;;4977175;28;20031;-95
2022/10/25 08:08:55;;;;;;;6.63;1.85;;;10.20;99.90;;;;;;4956291;28;20050;-96
2022/10/25 08:11:21;;;;;;;13.85;1.83;;;10.30;99.90;;;;;;4985065;28;20027;-94
2022/10/25 08:13:49;;;;;;;8.80;1.90;;;10.40;99.90;;;;;;4970254;28;20033;-93
2022/10/25 08:16:14;;;;;;;4.18;1.55;;;10.50;99.90;;;;;;4978234;28;20103;-93
2022/10/25 08:18:42;;;;;;;8.75;2.00;;;10.50;99.90;;;;;;4978812;28;20035;-94
2022/10/25 08:21:08;;;;;;;12.30;2.30;;;10.60;99.90;;;;;;4976140;28;20243;-95
2022/10/25 08:23:40;;;;;;;7.57;1.95;;;10.60;99.90;;;;;;4974651;28;20042;-96
2022/10/25 08:26:09;;;;;;;6.45;2.13;;;10.70;99.90;;;;;;4969968;28;20094;-94
2022/10/25 08:28:34;;;;;;;12.00;2.38;;;10.70;99.90;;;;;;4970150;28;20133;-96
2022/10/25 08:31:03;;;;;;;6.72;2.17;;;10.80;99.90;;;;;;4970725;28;20034;-96
2022/10/25 08:33:29;;;;;;;6.95;3.10;;;10.80;99.90;;;;;;4968312;28;20042;-96
2022/10/25 08:35:54;;;;;;;10.20;2.10;;;10.90;99.90;;;;;;4966891;28;20035;-94
2022/10/25 08:38:20;;;;;;;10.65;2.35;;;11.00;99.90;;;;;;4963429;28;20133;-95
2022/10/25 08:41:05;;;;;;;;;;;;;;;;;;;;;
2022/10/25 08:44:11;;;;;;;10.57;2.90;;;11.10;99.90;;;;;;4987749;28;20073;-96
2022/10/25 08:47:06;;;;;;;7.40;2.30;;;11.20;99.90;;;;;;4976436;28;20103;-96
2022/10/25 08:49:59;;;;;;;8.65;3.25;;;11.20;99.90;;;;;;4974985;28;20082;-93
2022/10/25 08:52:46;;;;;;;6.40;2.42;;;11.30;99.90;;;;;;4968333;28;20035;-94
2022/10/25 08:55:30;;;;;;;8.60;2.58;;;11.40;99.90;;;;;;4963471;28;20039;-92
2022/10/25 08:57:58;;;;;;;8.10;2.08;;;11.50;99.90;;;;;;4970376;28;20043;-94
2022/10/25 09:00:25;;;;;;;23.90;2.80;;;11.60;99.90;;;;;;4965901;28;20011;-95
2022/10/25 09:02:58;;;;;;;8.77;2.40;;;11.70;99.90;;;;;;4961008;28;20037;-95
2022/10/25 09:05:59;;;;;;;11.23;2.00;;;11.80;99.90;;;;;;4969080;28;20138;-96
2022/10/25 09:08:47;;;;;;;3.85;2.22;;;11.80;99.90;;;;;;4980517;28;20022;-94
2022/10/25 09:11:28;;;;;;;9.70;2.53;;;11.90;99.90;;;;;;4966194;28;20073;-93
2022/10/25 09:13:59;;;;;;;10.88;2.42;;;11.90;99.90;;;;;;4970797;28;20038;-96
2022/10/25 09:16:41;;;;;;;8.55;2.75;;;11.90;99.90;;;;;;4968934;28;20046;-95
2022/10/25 09:19:44;;;;;;;4.25;2.50;;;12.00;99.90;;;;;;4981745;28;20027;-95
2022/10/25 09:22:26;;;;;;;10.85;3.65;;;12.10;99.90;;;;;;4941750;28;20077;-95
2022/10/25 09:25:16;;;;;;;5.60;2.53;;;12.30;99.90;;;;;;4967146;28;20062;-95
2022/10/25 09:28:05;;;;;;;5.00;2.10;;;12.50;99.90;;;;;;4959113;28;20051;-95
2022/10/25 09:30:38;;;;;;;7.57;2.30;;;12.80;99.90;;;;;;4991513;28;20066;-95
2022/10/25 09:33:10;;;;;;;8.73;2.05;;;13.10;99.90;;;;;;4977226;28;20031;-95
2022/10/25 09:35:47;;;;;;;6.50;1.90;;;13.30;99.90;;;;;;4970689;28;20086;-94
2022/10/25 09:38:32;;;;;;;6.75;1.98;;;13.50;99.90;;;;;;4968362;28;20022;-94
2022/10/25 09:41:04;;;;;;;4.15;2.13;;;13.70;99.90;;;;;;4962749;28;20035;-94
2022/10/25 09:43:49;;;;;;;8.10;2.38;;;13.90;99.90;;;;;;4968070;28;20038;-96
2022/10/25 09:46:49;;;;;;;6.20;1.90;;;14.10;99.90;;;;;;4982536;28;20025;-96
2022/10/25 09:49:39;;;;;;;6.13;1.60;;;14.30;99.90;;;;;;4976305;28;20049;-94
2022/10/25 09:52:47;;;;;;;2.28;1.40;;;14.50;99.90;;;;;;4978900;28;20090;-94
2022/10/25 09:55:24;;;;;;;6.75;1.33;;;14.70;99.90;;;;;;4927244;28;20536;-95
2022/10/25 09:57:50;;;;;;;4.72;1.50;;;14.80;99.90;;;;;;4985443;28;20038;-95
2022/10/25 10:00:15;;;;;;;8.57;2.30;;;14.90;99.90;;;;;;4973447;28;20026;-95
2022/10/25 10:02:41;;;;;;;3.15;1.58;;;15.00;99.90;;;;;;4973522;28;20023;-95
2022/10/25 10:05:15;;;;;;;4.05;1.73;;;15.20;99.90;;;;;;4975886;28;20027;-95
2022/10/25 10:07:44;;;;;;;5.68;1.92;;;15.50;99.90;;;;;;4978120;28;20034;-96
2022/10/25 10:10:23;;;;;;;5.47;1.70;;;15.60;99.90;;;;;;4971147;28;20030;-95
2022/10/25 10:12:52;;;;;;;4.32;1.50;;;15.70;99.90;;;;;;4961273;28;20014;-96
2022/10/25 10:15:24;;;;;;;6.03;1.40;;;15.80;99.90;;;;;;4968887;28;20023;-96
2022/10/25 10:18:27;;;;;;;2.42;1.10;;;15.90;99.90;;;;;;4962126;28;20031;-96
2022/10/25 10:21:10;;;;;;;4.65;1.80;;;16.00;99.90;;;;;;4982908;28;20047;-96
2022/10/25 10:23:53;;;;;;;3.90;1.33;;;16.00;99.90;;;;;;4963078;28;20030;-96
2022/10/25 10:26:42;;;;;;;3.90;1.85;;;16.10;99.90;;;;;;4967906;28;20129;-95
2022/10/25 10:29:07;;;;;;;4.18;1.70;;;16.30;99.90;;;;;;4959682;28;20515;-95
2022/10/25 10:31:42;;;;;;;2.40;1.45;;;16.40;99.90;;;;;;4967015;28;20023;-96
2022/10/25 10:34:30;;;;;;;4.72;1.50;;;16.60;99.90;;;;;;4971703;28;20079;-95
2022/10/25 10:37:30;;;;;;;5.75;1.40;;;16.70;99.90;;;;;;4985815;28;20027;-95
2022/10/25 10:39:59;;;;;;;8.40;2.20;;;16.80;99.90;;;;;;4970527;28;20053;-96
2022/10/25 10:42:34;;;;;;;7.82;1.40;;;17.20;99.90;;;;;;4974200;28;20030;-95
2022/10/25 10:45:12;;;;;;;3.88;1.20;;;17.50;99.90;;;;;;4963820;28;20047;-95
2022/10/25 10:47:50;;;;;;;3.47;1.00;;;17.70;99.90;;;;;;4973169;28;20022;-96
2022/10/25 10:50:23;;;;;;;6.55;0.98;;;17.90;99.90;;;;;;4971660;28;20015;-93
2022/10/25 10:53:05;;;;;;;3.88;1.15;;;18.10;99.90;;;;;;4975435;28;20030;-96
2022/10/25 10:55:54;;;;;;;4.22;0.93;;;18.40;99.90;;;;;;4974332;28;20033;-95
2022/10/25 10:58:42;;;;;;;2.17;0.90;;;18.60;99.90;;;;;;4969424;28;20035;-95
2022/10/25 11:01:09;;;;;;;4.43;0.95;;;18.70;99.80;;;;;;4978899;28;20011;-95
2022/10/25 11:03:46;;;;;;;4.25;1.33;;;18.50;98.50;;;;;;4978663;28;20177;-93
2022/10/25 11:06:17;;;;;;;7.63;1.00;;;18.40;99.10;;;;;;4950770;28;20472;-94
2022/10/25 11:08:49;;;;;;;3.03;1.00;;;18.20;98.60;;;;;;4965916;28;20027;-93
2022/10/25 11:11:23;;;;;;;6.07;1.05;;;18.20;98.90;;;;;;4952013;28;20123;-94
2022/10/25 11:13:52;;;;;;;4.68;1.63;;;18.40;98.70;;;;;;4954918;28;20062;-94
2022/10/25 11:16:44;;;;;;;3.72;0.82;;;18.50;98.30;;;;;;4963625;28;20061;-93
2022/10/25 11:19:10;;;;;;;4.13;0.82;;;18.50;97.80;;;;;;4980364;28;20035;-95
2022/10/25 11:22:07;;;;;;;3.15;0.75;;;18.70;97.30;;;;;;4978757;28;20078;-92
2022/10/25 11:24:45;;;;;;;6.28;1.58;;;18.70;96.70;;;;;;4976841;28;20046;-94
2022/10/25 11:27:34;;;;;;;7.38;1.63;;;18.70;96.20;;;;;;4994953;28;20055;-94
2022/10/25 11:30:41;;;;;;;8.80;1.90;;;18.60;94.80;;;;;;4982373;28;20019;-95
2022/10/25 11:33:51;;;;;;;7.30;1.60;;;18.50;95.00;;;;;;4921791;29;20036;-96
2022/10/25 11:36:29;;;;;;;7.63;2.10;;;18.40;94.60;;;;;;4919102;29;20040;-96
2022/10/25 11:39:30;;;;;;;5.22;1.15;;;18.20;93.70;;;;;;4920781;29;20099;-95
2022/10/25 11:42:05;;;;;;;3.92;1.08;;;18.00;94.20;;;;;;4920935;29;20036;-96
2022/10/25 11:44:40;;;;;;;7.53;1.70;;;17.80;94.40;;;;;;4915456;29;20055;-94
2022/10/25 11:48:03;;;;;;;6.82;1.30;;;17.60;94.50;;;;;;4913796;29;20081;-95
2022/10/25 11:50:40;;;;;;;4.93;1.30;;;17.70;95.30;;;;;;4879283;29;20053;-95
2022/10/25 11:53:24;;;;;;;3.40;1.05;;;17.80;95.00;;;;;;4878366;29;20041;-94
2022/10/25 11:56:14;;;;;;;5.93;1.33;;;18.00;95.20;;;;;;4873414;29;20044;-95
2022/10/25 11:58:46;;;;;;;4.15;0.88;;;18.00;94.80;;;;;;4873554;29;20025;-95
2022/10/25 12:01:38;;;;;;;1.67;0.80;;;17.90;94.70;;;;;;4877811;29;20025;-94
2022/10/25 12:04:19;;;;;;;4.53;1.27;;;17.80;94.70;;;;;;4862484;29;20017;-94
2022/10/25 12:06:56;;;;;;;8.05;1.10;;;17.50;94.80;;;;;;4876991;29;20514;-96
2022/10/25 12:09:46;;;;;;;5.35;1.00;;;17.30;95.20;;;;;;4905078;29;20039;-94
2022/10/25 12:12:16;;;;;;;4.00;0.95;;;17.30;96.10;;;;;;4898902;29;20048;-95
2022/10/25 12:14:46;;;;;;;6.55;1.05;;;17.40;96.40;;;;;;4898804;29;20025;-95
2022/10/25 12:17:18;;;;;;;;;;;17.60;96.80;;;;;;4900238;29;20033;-95
2022/10/25 12:19:47;;;;;;;12.07;1.00;;;17.80;96.40;;;;;;4900893;29;19987;-95
2022/10/25 12:22:24;;;;;;;4.65;0.85;;;18.10;95.70;;;;;;4956449;28;20031;-94
2022/10/25 12:24:59;;;;;;;5.72;0.85;;;18.40;95.20;;;;;;4961793;28;20020;-95
2022/10/25 12:27:27;;;;;;;7.47;0.90;;;18.50;94.10;;;;;;4960245;28;20505;-95
2022/10/25 12:29:58;;;;;;;6.95;1.00;;;18.60;94.00;;;;;;4964526;29;20020;-93
2022/10/25 12:32:34;;;;;;;2.67;0.85;;;18.80;93.90;;;;;;4950741;29;20023;-95
2022/10/25 12:35:05;;;;;;;5.18;1.15;;;19.10;93.50;;;;;;4954299;29;20054;-95
2022/10/25 12:37:40;;;;;;;7.78;1.10;;;19.50;93.30;;;;;;4971689;29;20374;-95
2022/10/25 12:40:17;;;;;;;5.07;0.90;;;19.80;92.00;;;;;;4969376;28;20027;-94
2022/10/25 12:43:18;;;;;;;5.35;1.48;;;20.20;91.30;;;;;;4971925;28;20494;-95
2022/10/25 12:45:48;;;;;;;4.80;1.15;;;20.50;90.20;;;;;;4968594;28;20043;-95
2022/10/25 12:48:28;;;;;;;6.60;1.75;;;20.80;89.10;;;;;;4967973;28;20023;-95
2022/10/25 12:51:09;;;;;;;;;;;21.10;87.50;;;;;;4974345;29;20039;-95
2022/10/25 12:54:05;;;;;;;5.35;1.13;;;21.40;86.50;;;;;;4977280;29;19911;-95
2022/10/25 12:57:16;;;;;;;3.53;0.93;;;21.50;84.70;;;;;;4976157;28;20058;-96
2022/10/25 13:00:15;;;;;;;4.65;1.05;;;21.20;82.60;;;;;;4897729;29;20041;-95
2022/10/25 13:03:12;;;;;;;3.05;1.00;;;20.60;83.10;;;;;;4857300;29;20056;-95
2022/10/25 13:06:14;;;;;;;8.85;1.50;;;20.30;83.70;;;;;;4876273;29;20037;-95
2022/10/25 13:08:41;;;;;;;5.30;1.38;;;20.50;85.00;;;;;;4893761;29;20029;-96
2022/10/25 13:11:08;;;;;;;5.47;1.20;;;20.70;84.70;;;;;;4883392;29;20037;-95
2022/10/25 13:13:54;;;;;;;5.28;1.75;;;20.70;83.70;;;;;;4885035;29;20029;-90
2022/10/25 13:16:29;;;;;;;5.60;1.42;;;20.60;83.00;;;;;;4883723;29;20033;-96
2022/10/25 13:19:19;;;;;;;6.22;1.70;;;20.20;82.50;;;;;;4884336;29;20077;-96
2022/10/25 13:21:54;;;;;;;4.90;1.57;;;19.80;83.10;;;;;;4885777;29;20037;-96